createdAt,value
2023-04-25T00:00:36.103Z,81.15
2023-04-25T00:01:36.101Z,82.08
2023-04-25T00:02:36.231Z,81.77
2023-04-25T00:03:36.280Z,81.56
2023-04-25T00:04:36.520Z,81.60
2023-04-25T00:05:36.130Z,82.53
2023-04-25T00:06:36.057Z,82.32
2023-04-25T00:07:36.080Z,82.78
2023-04-25T00:08:36.065Z,82.46
2023-04-25T00:09:36.058Z,82.64
2023-04-25T00:10:36.064Z,82.43
2023-04-25T00:11:36.046Z,82.57
2023-04-25T00:12:36.036Z,82.98
2023-04-25T00:13:36.024Z,82.98
2023-04-25T00:14:36.010Z,82.74
2023-04-25T00:15:36.010Z,82.50
2023-04-25T00:16:36.149Z,82.39
2023-04-25T00:17:36.131Z,81.98
2023-04-25T00:18:35.975Z,81.35
2023-04-25T00:19:36.030Z,81.21
2023-04-25T00:20:35.960Z,81.01
2023-04-25T00:21:35.967Z,80.39
2023-04-25T00:22:35.969Z,80.66
2023-04-25T00:23:35.969Z,80.18
2023-04-25T00:24:35.947Z,80.49
2023-04-25T00:25:35.938Z,79.91
2023-04-25T00:26:35.941Z,80.53
2023-04-25T00:27:35.995Z,80.32
2023-04-25T00:28:35.993Z,80.94
2023-04-25T00:29:35.950Z,80.88
2023-04-25T00:30:35.945Z,81.60
2023-04-25T00:31:35.963Z,81.91
2023-04-25T00:32:35.933Z,81.91
2023-04-25T00:33:35.926Z,81.56
2023-04-25T00:34:35.955Z,81.15
2023-04-25T00:35:35.890Z,81.46
2023-04-25T00:36:35.897Z,80.94
2023-04-25T00:37:35.880Z,81.15
2023-04-25T00:38:35.938Z,80.84
2023-04-25T00:39:35.966Z,81.15
2023-04-25T00:40:35.877Z,80.98
2023-04-25T00:41:35.876Z,80.67
2023-04-25T00:42:35.881Z,81.74
2023-04-25T00:43:35.865Z,82.46
2023-04-25T00:44:35.931Z,82.36
2023-04-25T00:45:35.861Z,82.15
2023-04-25T00:46:35.846Z,82.67
2023-04-25T00:47:35.832Z,81.91
2023-04-25T00:48:35.810Z,81.91
2023-04-25T00:49:35.841Z,81.05
2023-04-25T00:50:35.794Z,80.77
2023-04-25T00:51:35.797Z,80.77
2023-04-25T00:52:35.798Z,81.12
2023-04-25T00:53:35.786Z,82.05
2023-04-25T00:54:35.751Z,81.64
2023-04-25T00:55:35.790Z,81.33
2023-04-25T00:56:35.754Z,81.64
2023-04-25T00:57:35.766Z,81.33
2023-04-25T00:58:35.731Z,82.26
2023-04-25T00:59:35.780Z,82.36
2023-04-25T01:00:35.841Z,82.57
2023-04-25T01:01:35.765Z,81.64
2023-04-25T01:02:35.858Z,81.54
2023-04-25T01:03:36.039Z,81.43
2023-04-25T01:04:35.752Z,81.02
2023-04-25T01:05:35.768Z,81.88
2023-04-25T01:06:35.741Z,81.57
2023-04-25T01:07:35.714Z,82.29
2023-04-25T01:08:35.723Z,83.12
2023-04-25T01:09:35.674Z,82.09
2023-04-25T01:10:35.801Z,82.65
2023-04-25T01:11:35.682Z,82.75
2023-04-25T01:12:35.691Z,83.78
2023-04-25T01:13:35.646Z,83.26
2023-04-25T01:14:35.646Z,83.33
2023-04-25T01:15:35.632Z,82.23
2023-04-25T01:16:35.650Z,82.68
2023-04-25T01:17:35.688Z,83.10
2023-04-25T01:18:35.655Z,83.10
2023-04-25T01:19:35.601Z,83.68
2023-04-25T01:20:35.617Z,83.68
2023-04-25T01:21:35.612Z,83.47
2023-04-25T01:22:35.577Z,82.92
2023-04-25T01:23:35.625Z,82.86
2023-04-25T01:24:35.569Z,82.78
2023-04-25T01:25:35.562Z,82.57
2023-04-25T01:26:35.566Z,82.01
2023-04-25T01:27:35.606Z,81.95
2023-04-25T01:28:35.568Z,81.54
2023-04-25T01:29:35.537Z,81.23
2023-04-25T01:30:35.546Z,80.81
2023-04-25T01:31:35.531Z,80.91
2023-04-25T01:32:35.556Z,80.81
2023-04-25T01:33:35.525Z,80.81
2023-04-25T01:34:35.522Z,80.46
2023-04-25T01:35:35.493Z,80.57
2023-04-25T01:36:35.517Z,80.15
2023-04-25T01:37:35.508Z,79.98
2023-04-25T01:38:35.543Z,80.15
2023-04-25T01:39:35.493Z,79.77
2023-04-25T01:40:35.505Z,80.54
2023-04-25T01:41:35.687Z,81.26
2023-04-25T01:42:35.462Z,81.37
2023-04-25T01:43:35.495Z,81.82
2023-04-25T01:44:35.458Z,81.92
2023-04-25T01:45:35.459Z,82.44
2023-04-25T01:46:35.461Z,82.13
2023-04-25T01:47:35.510Z,82.54
2023-04-25T01:48:35.445Z,82.17
2023-04-25T01:49:35.431Z,82.65
2023-04-25T01:50:35.430Z,82.65
2023-04-25T01:51:35.420Z,82.79
2023-04-25T01:52:35.402Z,82.68
2023-04-25T01:53:35.410Z,82.68
2023-04-25T01:54:35.422Z,82.89
2023-04-25T01:55:35.396Z,82.37
2023-04-25T01:56:35.374Z,82.06
2023-04-25T01:57:35.391Z,83.24
2023-04-25T01:58:35.364Z,84.11
2023-04-25T01:59:35.402Z,84.00
2023-04-25T02:00:35.348Z,84.11
2023-04-25T02:01:35.420Z,83.84
2023-04-25T02:02:35.422Z,84.56
2023-04-25T02:03:35.435Z,84.73
2023-04-25T02:04:35.432Z,84.83
2023-04-25T02:05:35.328Z,84.83
2023-04-25T02:06:35.335Z,84.88
2023-04-25T02:07:35.342Z,85.25
2023-04-25T02:08:35.344Z,84.52
2023-04-25T02:09:35.310Z,84.36
2023-04-25T02:10:35.317Z,84.88
2023-04-25T02:11:35.290Z,85.14
2023-04-25T02:12:35.293Z,84.98
2023-04-25T02:13:35.278Z,84.98
2023-04-25T02:14:35.356Z,86.26
2023-04-25T02:15:35.267Z,86.12
2023-04-25T02:16:35.362Z,86.33
2023-04-25T02:17:35.314Z,86.39
2023-04-25T02:18:35.276Z,85.14
2023-04-25T02:19:35.272Z,84.94
2023-04-25T02:20:35.236Z,84.48
2023-04-25T02:21:35.276Z,84.21
2023-04-25T02:22:35.224Z,84.36
2023-04-25T02:23:35.221Z,84.52
2023-04-25T02:24:35.210Z,84.63
2023-04-25T02:25:35.229Z,84.52
2023-04-25T02:26:35.222Z,84.21
2023-04-25T02:27:35.217Z,84.17
2023-04-25T02:28:35.995Z,84.17
2023-04-25T02:29:35.219Z,84.09
2023-04-25T02:30:35.192Z,83.47
2023-04-25T02:31:35.228Z,83.12
2023-04-25T02:32:35.215Z,81.95
2023-04-25T02:33:35.176Z,81.33
2023-04-25T02:34:35.138Z,80.77
2023-04-25T02:35:35.155Z,80.32
2023-04-25T02:36:35.158Z,80.11
2023-04-25T02:37:35.132Z,79.70
2023-04-25T02:38:35.157Z,79.91
2023-04-25T02:39:35.121Z,79.49
2023-04-25T02:40:35.152Z,79.19
2023-04-25T02:41:35.147Z,79.12
2023-04-25T02:42:35.124Z,79.12
2023-04-25T02:43:35.096Z,79.43
2023-04-25T02:44:35.107Z,79.53
2023-04-25T02:45:35.098Z,79.60
2023-04-25T02:46:39.478Z,79.19
2023-04-25T02:47:36.129Z,79.08
2023-04-25T02:48:35.085Z,78.98
2023-04-25T02:49:35.125Z,79.19
2023-04-25T02:50:35.069Z,79.29
2023-04-25T02:51:35.070Z,79.60
2023-04-25T02:52:35.056Z,79.80
2023-04-25T02:53:35.037Z,79.80
2023-04-25T02:54:35.049Z,79.84
2023-04-25T02:55:35.054Z,80.26
2023-04-25T02:56:35.042Z,81.37
2023-04-25T02:57:35.013Z,82.03
2023-04-25T02:58:35.007Z,83.23
2023-04-25T02:59:35.006Z,82.57
2023-04-25T03:00:35.030Z,82.57
2023-04-25T03:01:35.026Z,82.36
2023-04-25T03:02:35.043Z,82.67
2023-04-25T03:03:35.063Z,82.05
2023-04-25T03:04:35.030Z,82.46
2023-04-25T03:05:34.967Z,82.67
2023-04-25T03:06:34.991Z,82.57
2023-04-25T03:07:35.001Z,82.57
2023-04-25T03:08:34.950Z,82.78
2023-04-25T03:09:34.933Z,82.36
2023-04-25T03:10:34.951Z,82.84
2023-04-25T03:11:34.923Z,82.67
2023-04-25T03:12:34.941Z,83.09
2023-04-25T03:13:34.933Z,82.57
2023-04-25T03:14:34.908Z,82.78
2023-04-25T03:15:34.913Z,83.40
2023-04-25T03:16:34.916Z,82.67
2023-04-25T03:17:34.986Z,82.67
2023-04-25T03:18:34.946Z,83.75
2023-04-25T03:19:34.912Z,84.06
2023-04-25T03:20:34.921Z,84.16
2023-04-25T03:21:34.900Z,83.95
2023-04-25T03:22:34.887Z,84.06
2023-04-25T03:23:34.915Z,84.68
2023-04-25T03:24:34.848Z,84.33
2023-04-25T03:25:34.844Z,84.33
2023-04-25T03:26:34.912Z,83.81
2023-04-25T03:27:34.839Z,83.98
2023-04-25T03:28:34.844Z,83.73
2023-04-25T03:29:34.881Z,82.08
2023-04-25T03:30:34.846Z,82.18
2023-04-25T03:31:34.887Z,82.25
2023-04-25T03:32:34.843Z,81.80
2023-04-25T03:33:34.860Z,81.70
2023-04-25T03:34:34.822Z,81.14
2023-04-25T03:35:34.810Z,80.69
2023-04-25T03:36:34.808Z,79.66
2023-04-25T03:37:34.799Z,79.66
2023-04-25T03:38:34.810Z,79.11
2023-04-25T03:39:34.780Z,79.21
2023-04-25T03:40:34.766Z,78.97
2023-04-25T03:41:34.800Z,78.45
2023-04-25T03:42:34.773Z,78.18
2023-04-25T03:43:34.753Z,78.86
2023-04-25T03:44:34.764Z,78.72
2023-04-25T03:45:34.848Z,78.72
2023-04-25T03:46:34.771Z,78.07
2023-04-25T03:47:34.814Z,77.90
2023-04-25T03:48:34.777Z,77.66
2023-04-25T03:49:34.736Z,77.97
2023-04-25T03:50:34.736Z,78.03
2023-04-25T03:51:34.757Z,77.72
2023-04-25T03:52:34.753Z,77.86
2023-04-25T03:53:34.739Z,78.07
2023-04-25T03:54:34.705Z,78.24
2023-04-25T03:55:34.726Z,78.41
2023-04-25T03:56:34.838Z,77.69
2023-04-25T03:57:34.650Z,77.69
2023-04-25T03:58:34.660Z,76.93
2023-04-25T03:59:34.700Z,76.52
2023-04-25T04:00:34.756Z,76.25
2023-04-25T04:01:34.696Z,77.17
2023-04-25T04:02:34.797Z,77.79
2023-04-25T04:03:34.874Z,77.14
2023-04-25T04:04:34.774Z,77.17
2023-04-25T04:05:34.657Z,78.07
2023-04-25T04:06:34.608Z,79.30
2023-04-25T04:07:34.621Z,79.65
2023-04-25T04:08:34.654Z,80.27
2023-04-25T04:09:34.618Z,80.89
2023-04-25T04:10:35.465Z,80.58
2023-04-25T04:11:34.619Z,81.09
2023-04-25T04:12:34.624Z,80.65
2023-04-25T04:13:34.570Z,80.47
2023-04-25T04:14:34.610Z,81.23
2023-04-25T04:15:34.619Z,82.40
2023-04-25T04:16:34.801Z,82.98
2023-04-25T04:17:35.655Z,81.85
2023-04-25T04:18:34.563Z,82.47
2023-04-25T04:19:34.651Z,81.85
2023-04-25T04:20:34.527Z,82.12
2023-04-25T04:21:34.532Z,81.77
2023-04-25T04:22:34.509Z,81.77
2023-04-25T04:23:36.989Z,81.33
2023-04-25T04:24:34.542Z,79.58
2023-04-25T04:25:34.502Z,80.09
2023-04-25T04:26:34.513Z,79.99
2023-04-25T04:27:34.605Z,79.75
2023-04-25T04:28:34.472Z,79.27
2023-04-25T04:29:34.503Z,80.09
2023-04-25T04:30:34.542Z,80.09
2023-04-25T04:31:34.567Z,80.09
2023-04-25T04:32:35.504Z,80.85
2023-04-25T04:33:34.470Z,80.99
2023-04-25T04:34:34.487Z,81.81
2023-04-25T04:35:34.464Z,81.26
2023-04-25T04:36:34.483Z,80.54
2023-04-25T04:37:34.447Z,81.12
2023-04-25T04:38:34.456Z,80.47
2023-04-25T04:39:34.537Z,79.61
2023-04-25T04:40:34.494Z,78.78
2023-04-25T04:41:34.539Z,78.44
2023-04-25T04:42:34.496Z,78.23
2023-04-25T04:43:34.481Z,77.68
2023-04-25T04:44:34.411Z,76.90
2023-04-25T04:45:34.485Z,76.79
2023-04-25T04:46:34.456Z,76.90
2023-04-25T04:47:34.485Z,78.20
2023-04-25T04:48:34.449Z,77.62
2023-04-25T04:49:34.431Z,76.76
2023-04-25T04:50:34.402Z,77.20
2023-04-25T04:51:34.377Z,78.13
2023-04-25T04:52:34.408Z,77.75
2023-04-25T04:53:34.427Z,78.13
2023-04-25T04:54:34.334Z,78.23
2023-04-25T04:55:34.319Z,78.64
2023-04-25T04:56:34.984Z,78.44
2023-04-25T04:57:34.359Z,77.92
2023-04-25T04:58:34.320Z,77.68
2023-04-25T04:59:34.324Z,77.17
2023-04-25T05:00:34.388Z,77.27
2023-04-25T05:01:34.307Z,77.58
2023-04-25T05:02:34.416Z,77.06
2023-04-25T05:03:34.499Z,77.17
2023-04-25T05:04:34.395Z,76.97
2023-04-25T05:05:34.267Z,77.37
2023-04-25T05:06:34.277Z,76.72
2023-04-25T05:07:34.452Z,76.86
2023-04-25T05:08:34.422Z,77.23
2023-04-25T05:09:34.230Z,76.93
2023-04-25T05:10:34.306Z,76.82
2023-04-25T05:11:34.240Z,76.55
2023-04-25T05:12:35.299Z,76.14
2023-04-25T05:13:34.258Z,75.93
2023-04-25T05:14:34.246Z,76.35
2023-04-25T05:15:34.213Z,76.65
2023-04-25T05:16:34.244Z,76.76
2023-04-25T05:17:34.255Z,76.65
2023-04-25T05:18:34.214Z,76.82
2023-04-25T05:19:34.172Z,76.21
2023-04-25T05:20:34.170Z,75.59
2023-04-25T05:21:34.193Z,75.93
2023-04-25T05:22:34.166Z,76.10
2023-04-25T05:23:34.189Z,75.93
2023-04-25T05:24:34.328Z,76.65
2023-04-25T05:25:34.138Z,76.65
2023-04-25T05:26:34.162Z,77.03
2023-04-25T05:27:34.124Z,76.86
2023-04-25T05:28:34.160Z,76.72
2023-04-25T05:29:34.215Z,76.76
2023-04-25T05:30:34.144Z,76.51
2023-04-25T05:31:34.166Z,76.35
2023-04-25T05:32:34.152Z,76.55
2023-04-25T05:34:07.564Z,76.72
2023-04-25T05:35:08.776Z,76.72
2023-04-25T05:36:07.565Z,75.80
2023-04-25T05:37:07.667Z,76.45
2023-04-25T05:38:07.506Z,76.42
2023-04-25T05:39:07.541Z,76.93
2023-04-25T05:40:10.065Z,76.72
2023-04-25T05:41:07.504Z,76.38
2023-04-25T05:42:07.550Z,76.48
2023-04-25T05:43:06.504Z,75.87
2023-04-25T05:43:34.064Z,76.62
2023-04-25T05:44:34.083Z,76.28
2023-04-25T05:45:34.112Z,76.38
2023-04-25T05:46:34.163Z,76.62
2023-04-25T05:47:34.047Z,76.93
2023-04-25T05:48:33.998Z,77.85
2023-04-25T05:49:34.009Z,77.03
2023-04-25T05:50:34.034Z,77.68
2023-04-25T05:51:34.008Z,77.85
2023-04-25T05:52:34.076Z,77.95
2023-04-25T05:53:34.035Z,78.16
2023-04-25T05:54:33.994Z,77.81
2023-04-25T05:55:33.964Z,77.55
2023-04-25T05:56:33.931Z,77.44
2023-04-25T05:57:33.954Z,77.00
2023-04-25T05:58:34.005Z,77.65
2023-04-25T05:59:33.947Z,77.23
2023-04-25T06:00:33.938Z,76.89
2023-04-25T06:01:33.962Z,77.00
2023-04-25T06:02:34.066Z,76.79
2023-04-25T06:03:34.264Z,76.68
2023-04-25T06:04:34.319Z,76.55
2023-04-25T06:05:34.254Z,76.96
2023-04-25T06:06:34.674Z,76.28
2023-04-25T06:07:33.875Z,75.87
2023-04-25T06:08:33.969Z,76.17
2023-04-25T06:09:33.875Z,76.75
2023-04-25T06:10:33.871Z,76.04
2023-04-25T06:11:33.885Z,75.73
2023-04-25T06:12:33.836Z,75.73
2023-04-25T06:13:33.904Z,75.11
2023-04-25T06:14:33.863Z,75.38
2023-04-25T06:15:33.832Z,75.21
2023-04-25T06:16:33.976Z,75.08
2023-04-25T06:17:33.836Z,75.59
2023-04-25T06:18:33.806Z,75.59
2023-04-25T06:19:33.847Z,76.04
2023-04-25T06:20:33.777Z,75.42
2023-04-25T06:21:34.003Z,75.21
2023-04-25T06:22:33.783Z,75.52
2023-04-25T06:23:33.812Z,75.93
2023-04-25T06:24:34.193Z,75.32
2023-04-25T06:25:33.778Z,76.14
2023-04-25T06:26:33.879Z,76.34
2023-04-25T06:27:33.789Z,75.28
2023-04-25T06:28:33.820Z,74.87
2023-04-25T06:29:33.815Z,74.66
2023-04-25T06:30:33.822Z,74.43
2023-04-25T06:31:33.835Z,74.53
2023-04-25T06:32:33.775Z,74.29
2023-04-25T06:33:35.194Z,75.49
2023-04-25T06:34:33.761Z,75.35
2023-04-25T06:35:33.760Z,73.68
2023-04-25T06:36:33.696Z,73.95
2023-04-25T06:37:33.794Z,74.26
2023-04-25T06:38:33.701Z,73.61
2023-04-25T06:39:33.762Z,73.40
2023-04-25T06:40:33.703Z,73.06
2023-04-25T06:41:33.668Z,72.00
2023-04-25T06:42:33.660Z,71.86
2023-04-25T06:43:33.684Z,70.94
2023-04-25T06:44:33.714Z,70.33
2023-04-25T06:45:33.687Z,70.29
2023-04-25T06:46:33.773Z,70.74
2023-04-25T06:47:33.748Z,71.62
2023-04-25T06:48:33.641Z,72.11
2023-04-25T06:49:33.621Z,71.45
2023-04-25T06:50:33.597Z,70.84
2023-04-25T06:51:33.664Z,72.00
2023-04-25T06:52:34.146Z,71.28
2023-04-25T06:53:33.610Z,70.91
2023-04-25T06:54:33.612Z,69.92
2023-04-25T06:55:33.572Z,70.12
2023-04-25T06:56:33.613Z,70.53
2023-04-25T06:57:33.598Z,69.82
2023-04-25T06:58:33.593Z,69.79
2023-04-25T06:59:33.580Z,69.75
2023-04-25T07:00:33.619Z,69.58
2023-04-25T07:01:33.569Z,69.45
2023-04-25T07:02:34.291Z,69.14
2023-04-25T07:03:33.685Z,69.14
2023-04-25T07:04:33.740Z,68.63
2023-04-25T07:05:33.565Z,68.32
2023-04-25T07:06:33.531Z,68.42
2023-04-25T07:07:33.540Z,67.81
2023-04-25T07:08:33.536Z,68.84
2023-04-25T07:09:33.494Z,68.19
2023-04-25T07:10:33.535Z,67.34
2023-04-25T07:11:33.475Z,67.71
2023-04-25T07:12:33.493Z,67.47
2023-04-25T07:13:33.524Z,67.47
2023-04-25T07:14:33.510Z,67.65
2023-04-25T07:15:33.525Z,67.37
2023-04-25T07:16:33.594Z,67.44
2023-04-25T07:17:33.517Z,67.03
2023-04-25T07:18:33.474Z,66.31
2023-04-25T07:19:33.557Z,66.31
2023-04-25T07:20:33.453Z,66.52
2023-04-25T07:21:33.499Z,65.91
2023-04-25T07:22:33.472Z,65.53
2023-04-25T07:23:33.450Z,65.60
2023-04-25T07:24:33.461Z,65.77
2023-04-25T07:25:33.405Z,64.86
2023-04-25T07:26:33.413Z,65.03
2023-04-25T07:27:33.456Z,64.11
2023-04-25T07:28:33.445Z,64.01
2023-04-25T07:29:33.386Z,63.90
2023-04-25T07:30:33.389Z,64.04
2023-04-25T07:31:33.455Z,64.48
2023-04-25T07:32:33.417Z,65.19
2023-04-25T07:33:33.398Z,67.47
2023-04-25T07:34:33.406Z,67.68
2023-04-25T07:35:33.388Z,67.57
2023-04-25T07:36:33.361Z,69.01
2023-04-25T07:37:33.365Z,69.79
2023-04-25T07:38:33.327Z,69.48
2023-04-25T07:39:33.384Z,69.85
2023-04-25T07:40:33.339Z,69.04
2023-04-25T07:41:33.310Z,67.98
2023-04-25T07:42:33.351Z,67.40
2023-04-25T07:43:33.300Z,67.37
2023-04-25T07:44:33.297Z,65.30
2023-04-25T07:45:33.372Z,66.04
2023-04-25T07:46:33.308Z,65.09
2023-04-25T07:47:33.397Z,65.91
2023-04-25T07:48:33.351Z,68.02
2023-04-25T07:49:33.295Z,68.23
2023-04-25T07:50:33.336Z,68.36
2023-04-25T07:51:33.321Z,68.46
2023-04-25T07:52:33.271Z,67.21
2023-04-25T07:53:33.276Z,69.24
2023-04-25T07:54:33.246Z,68.87
2023-04-25T07:55:33.278Z,68.26
2023-04-25T07:56:45.230Z,67.44
2023-04-25T07:57:35.226Z,66.49
2023-04-25T07:58:33.216Z,67.27
2023-04-25T07:59:33.248Z,64.72
2023-04-25T08:00:33.218Z,65.40
2023-04-25T08:01:33.222Z,64.27
2023-04-25T08:02:33.389Z,62.88
2023-04-25T08:03:33.392Z,61.78
2023-04-25T08:04:33.378Z,59.10
2023-04-25T08:05:33.339Z,57.70
2023-04-25T08:06:33.440Z,58.18
2023-04-25T08:07:33.211Z,57.82
2023-04-25T08:08:33.170Z,56.70
2023-04-25T08:09:33.186Z,57.95
2023-04-25T08:10:33.160Z,58.15
2023-04-25T08:11:33.172Z,57.65
2023-04-25T08:12:33.143Z,56.40
2023-04-25T08:13:33.655Z,55.94
2023-04-25T08:14:33.192Z,56.58
2023-04-25T08:15:33.209Z,56.15
2023-04-25T08:16:33.230Z,56.24
2023-04-25T08:17:33.180Z,56.45
2023-04-25T08:18:33.111Z,56.37
2023-04-25T08:19:33.073Z,55.87
2023-04-25T08:20:33.090Z,56.48
2023-04-25T08:21:33.079Z,56.65
2023-04-25T08:22:33.075Z,57.01
2023-04-25T08:23:33.049Z,56.71
2023-04-25T08:24:33.080Z,57.62
2023-04-25T08:25:33.096Z,57.96
2023-04-25T08:26:33.082Z,58.21
2023-04-25T08:27:33.037Z,56.78
2023-04-25T08:28:33.093Z,56.78
2023-04-25T08:29:33.048Z,56.68
2023-04-25T08:30:33.028Z,56.76
2023-04-25T08:31:33.072Z,55.66
2023-04-25T08:32:33.036Z,56.60
2023-04-25T08:33:32.994Z,56.37
2023-04-25T08:34:33.043Z,56.37
2023-04-25T08:35:32.967Z,56.48
2023-04-25T08:36:39.069Z,57.09
2023-04-25T08:37:34.978Z,57.09
2023-04-25T08:38:33.004Z,56.91
2023-04-25T08:39:32.990Z,56.78
2023-04-25T08:40:32.956Z,56.65
2023-04-25T08:41:32.973Z,56.07
2023-04-25T08:42:33.102Z,56.63
2023-04-25T08:43:32.933Z,57.09
2023-04-25T08:44:32.999Z,58.86
2023-04-25T08:45:33.040Z,59.91
2023-04-25T08:46:32.950Z,59.91
2023-04-25T08:47:32.934Z,59.80
2023-04-25T08:48:32.921Z,59.88
2023-04-25T08:49:32.958Z,59.39
2023-04-25T08:50:32.978Z,58.96
2023-04-25T08:51:32.903Z,59.37
2023-04-25T08:52:32.859Z,59.27
2023-04-25T08:53:34.022Z,58.93
2023-04-25T08:54:35.747Z,58.80
2023-04-25T08:55:32.862Z,59.41
2023-04-25T08:56:32.860Z,59.52
2023-04-25T08:57:32.855Z,58.34
2023-04-25T08:58:32.857Z,56.88
2023-04-25T08:59:32.879Z,56.35
2023-04-25T09:00:32.859Z,55.89
2023-04-25T09:01:32.897Z,54.31
2023-04-25T09:02:33.227Z,52.89
2023-04-25T09:03:32.965Z,53.27
2023-04-25T09:04:32.790Z,51.70
2023-04-25T09:05:32.805Z,50.17
2023-04-25T09:06:32.843Z,51.29
2023-04-25T09:07:32.782Z,52.08
2023-04-25T09:08:32.776Z,48.15
2023-04-25T09:09:32.834Z,49.62
2023-04-25T09:11:32.730Z,50.00
2023-04-25T09:12:32.811Z,48.58
2023-04-25T09:13:32.775Z,49.69
2023-04-25T09:14:32.970Z,50.58
2023-04-25T09:15:32.755Z,50.93
2023-04-25T09:16:33.874Z,50.20
2023-04-25T09:17:33.761Z,50.40
2023-04-25T09:18:32.708Z,50.85
2023-04-25T09:19:40.437Z,51.59
2023-04-25T09:20:37.660Z,51.72
2023-04-25T09:21:33.658Z,51.39
2023-04-25T09:22:32.674Z,52.12
2023-04-25T09:23:32.675Z,51.72
2023-04-25T09:24:32.675Z,51.41
2023-04-25T09:25:32.645Z,51.89
2023-04-25T09:26:32.944Z,51.79
2023-04-25T09:27:32.638Z,51.41
2023-04-25T09:28:32.679Z,51.79
2023-04-25T09:29:32.696Z,52.81
2023-04-25T09:30:32.620Z,52.68
2023-04-25T09:31:32.671Z,51.74
2023-04-25T09:32:32.692Z,51.84
2023-04-25T09:33:32.582Z,51.94
2023-04-25T09:34:33.593Z,52.40
2023-04-25T09:35:32.610Z,51.89
2023-04-25T09:36:32.601Z,51.97
2023-04-25T09:37:32.574Z,50.59
2023-04-25T09:38:32.601Z,49.50
2023-04-25T09:39:32.635Z,50.87
2023-04-25T09:40:32.564Z,50.14
2023-04-25T09:41:32.591Z,49.94
2023-04-25T09:42:32.571Z,49.22
2023-04-25T09:43:32.526Z,47.88
2023-04-25T09:44:32.626Z,47.88
2023-04-25T09:45:32.544Z,48.54
2023-04-25T09:46:32.565Z,51.20
2023-04-25T09:47:32.554Z,49.63
2023-04-25T09:48:32.648Z,48.64
2023-04-25T09:49:32.499Z,48.74
2023-04-25T09:50:32.473Z,49.40
2023-04-25T09:51:32.497Z,48.24
2023-04-25T09:52:32.523Z,47.49
2023-04-25T09:53:32.468Z,45.90
2023-04-25T09:54:32.470Z,44.80
2023-04-25T09:55:32.464Z,43.69
2023-04-25T09:56:32.488Z,43.35
2023-04-25T09:57:32.433Z,43.37
2023-04-25T09:58:33.229Z,42.92
2023-04-25T09:59:33.453Z,44.38
2023-04-25T10:00:33.233Z,44.30
2023-04-25T10:01:32.458Z,45.44
2023-04-25T10:02:32.529Z,45.54
2023-04-25T10:03:32.711Z,45.67
2023-04-25T10:04:33.915Z,47.82
2023-04-25T10:05:32.458Z,47.95
2023-04-25T10:06:32.430Z,48.96
2023-04-25T10:07:32.371Z,48.30
2023-04-25T10:08:32.378Z,49.70
2023-04-25T10:09:32.383Z,48.19
2023-04-25T10:10:32.368Z,49.34
2023-04-25T10:11:32.434Z,49.04
2023-04-25T10:12:32.366Z,49.42
2023-04-25T10:13:32.351Z,49.57
2023-04-25T10:14:32.350Z,49.85
2023-04-25T10:15:32.357Z,48.52
2023-04-25T10:16:32.356Z,49.24
2023-04-25T10:17:32.357Z,48.30
2023-04-25T10:18:32.365Z,47.56
2023-04-25T10:19:32.385Z,46.91
2023-04-25T10:20:32.286Z,45.32
2023-04-25T10:21:32.325Z,42.46
2023-04-25T10:22:32.328Z,40.55
2023-04-25T10:23:32.328Z,38.93
2023-04-25T10:24:32.280Z,39.10
2023-04-25T10:25:32.300Z,36.67
2023-04-25T10:26:32.275Z,35.35
2023-04-25T10:27:32.337Z,35.60
2023-04-25T10:28:32.307Z,37.01
2023-04-25T10:29:32.226Z,36.46
2023-04-25T10:30:32.310Z,37.07
2023-04-25T10:31:32.318Z,38.76
2023-04-25T10:32:32.209Z,39.81
2023-04-25T10:33:32.249Z,41.68
2023-04-25T10:34:32.213Z,43.75
2023-04-25T10:35:32.449Z,43.75
2023-04-25T10:36:32.214Z,43.43
2023-04-25T10:37:32.184Z,42.33
2023-04-25T10:38:32.198Z,44.53
2023-04-25T10:39:32.207Z,45.32
2023-04-25T10:40:32.211Z,44.79
2023-04-25T10:41:32.171Z,44.54
2023-04-25T10:42:32.183Z,43.73
2023-04-25T10:43:32.173Z,44.77
2023-04-25T10:44:32.179Z,44.79
2023-04-25T10:46:08.297Z,45.38
2023-04-25T10:47:09.431Z,44.87
2023-04-25T10:48:07.128Z,43.96
2023-04-25T10:49:05.616Z,43.84
2023-04-25T10:50:07.622Z,43.84
2023-04-25T10:50:32.151Z,43.44
2023-04-25T10:52:05.557Z,43.84
2023-04-25T10:53:05.608Z,42.45
2023-04-25T10:54:05.566Z,42.31
2023-04-25T10:55:08.098Z,43.41
2023-04-25T10:55:32.149Z,44.34
2023-04-25T10:57:05.568Z,45.14
2023-04-25T10:58:07.060Z,45.18
2023-04-25T10:58:32.981Z,45.40
2023-04-25T10:59:32.194Z,45.87
2023-04-25T11:00:42.936Z,45.36
2023-04-25T11:01:34.133Z,45.28
2023-04-25T11:02:32.219Z,44.97
2023-04-25T11:04:05.890Z,45.36
2023-04-25T11:04:32.478Z,44.97
2023-04-25T11:05:32.952Z,45.50
2023-04-25T11:06:32.042Z,45.59
2023-04-25T11:07:32.008Z,46.09
2023-04-25T11:08:32.027Z,45.22
2023-04-25T11:09:31.976Z,44.89
2023-04-25T11:10:31.987Z,45.10
2023-04-25T11:11:32.006Z,44.87
2023-04-25T11:12:32.034Z,45.06
2023-04-25T11:13:31.933Z,45.34
2023-04-25T11:14:31.944Z,45.03
2023-04-25T11:15:32.004Z,45.03
2023-04-25T11:16:32.040Z,44.60
2023-04-25T11:17:32.030Z,44.26
2023-04-25T11:18:32.006Z,43.47
2023-04-25T11:19:31.960Z,40.93
2023-04-25T11:20:31.946Z,40.52
2023-04-25T11:21:31.939Z,41.29
2023-04-25T11:22:31.972Z,40.05
2023-04-25T11:23:31.899Z,40.07
2023-04-25T11:24:31.872Z,40.07
2023-04-25T11:25:32.193Z,40.48
2023-04-25T11:26:31.905Z,39.87
2023-04-25T11:27:32.155Z,40.37
2023-04-25T11:28:31.979Z,41.19
2023-04-25T11:29:31.838Z,40.70
2023-04-25T11:30:32.839Z,41.61
2023-04-25T11:31:32.070Z,40.78
2023-04-25T11:32:31.968Z,41.07
2023-04-25T11:33:31.828Z,39.42
2023-04-25T11:34:31.921Z,39.42
2023-04-25T11:35:31.815Z,39.42
2023-04-25T11:36:31.850Z,39.02
2023-04-25T11:37:31.807Z,40.08
2023-04-25T11:38:31.780Z,38.93
2023-04-25T11:39:31.804Z,39.15
2023-04-25T11:40:31.835Z,39.69
2023-04-25T11:41:31.770Z,39.87
2023-04-25T11:42:31.763Z,41.15
2023-04-25T11:43:31.785Z,41.88
2023-04-25T11:44:31.757Z,41.15
2023-04-25T11:45:31.750Z,42.17
2023-04-25T11:46:31.791Z,42.08
2023-04-25T11:47:31.781Z,42.77
2023-04-25T11:48:31.847Z,40.86
2023-04-25T11:49:32.444Z,41.99
2023-04-25T11:50:32.726Z,42.13
2023-04-25T11:51:31.743Z,43.24
2023-04-25T11:52:31.769Z,43.55
2023-04-25T11:53:31.714Z,42.63
2023-04-25T11:54:31.662Z,43.44
2023-04-25T11:55:31.665Z,43.87
2023-04-25T11:56:31.678Z,44.49
2023-04-25T11:57:31.677Z,44.36
2023-04-25T11:58:31.658Z,45.07
2023-04-25T11:59:31.699Z,43.81
2023-04-25T12:00:31.660Z,43.84
2023-04-25T12:01:33.091Z,44.34
2023-04-25T12:02:31.814Z,44.24
2023-04-25T12:03:31.902Z,45.26
2023-04-25T12:04:31.915Z,44.73
2023-04-25T12:05:33.277Z,44.22
2023-04-25T12:06:32.612Z,45.04
2023-04-25T12:07:31.615Z,44.31
2023-04-25T12:08:31.644Z,43.90
2023-04-25T12:09:31.612Z,43.47
2023-04-25T12:10:31.600Z,42.53
2023-04-25T12:11:31.574Z,42.53
2023-04-25T12:12:32.505Z,42.45
2023-04-25T12:13:31.617Z,43.12
2023-04-25T12:14:32.523Z,43.71
2023-04-25T12:15:31.892Z,43.38
2023-04-25T12:16:31.655Z,43.16
2023-04-25T12:17:32.237Z,42.45
2023-04-25T12:18:31.585Z,41.94
2023-04-25T12:19:33.283Z,42.94
2023-04-25T12:20:31.521Z,42.21
2023-04-25T12:21:35.294Z,41.31
2023-04-25T12:22:31.560Z,41.53
2023-04-25T12:23:31.524Z,40.82
2023-04-25T12:24:33.005Z,41.61
2023-04-25T12:25:32.668Z,41.31
2023-04-25T12:26:32.588Z,40.94
2023-04-25T12:27:33.327Z,41.06
2023-04-25T12:28:33.710Z,42.21
2023-04-25T12:29:42.061Z,41.98
2023-04-25T12:30:33.655Z,41.75
2023-04-25T12:31:34.888Z,41.61
2023-04-25T12:32:32.736Z,41.82
2023-04-25T12:33:32.650Z,42.31
2023-04-25T12:34:33.677Z,40.83
2023-04-25T12:35:33.968Z,39.67
2023-04-25T12:36:32.460Z,39.31
2023-04-25T12:37:33.257Z,36.77
2023-04-25T12:38:33.783Z,35.08
2023-04-25T12:39:31.569Z,34.37
2023-04-25T12:40:32.397Z,35.63
2023-04-25T12:41:31.504Z,37.05
2023-04-25T12:42:31.368Z,38.32
2023-04-25T12:43:31.389Z,38.47
2023-04-25T12:44:33.348Z,40.44
2023-04-25T12:45:32.389Z,40.14
2023-04-25T12:46:31.440Z,41.56
2023-04-25T12:47:31.441Z,40.84
2023-04-25T12:48:31.369Z,42.19
2023-04-25T12:49:31.341Z,40.95
2023-04-25T12:50:31.330Z,41.38
2023-04-25T12:51:31.335Z,40.68
2023-04-25T12:52:31.338Z,40.99
2023-04-25T12:53:31.960Z,42.83